Time;durP1;ratioP1;P1;durP2;ratioP2;P2;SDS_P1;SDS_P2;PMS_P1;PMS_P2;Temp;Humidity;BMP_temperature;BMP_pressure;BME280_temperature;BME280_humidity;BME280_pressure;Samples;Min_cycle;Max_cycle;Signal;HPM_P1;HPM_P2
2021/04/25 00:01:22;;;;;;;68.07;63.95;;;;;;;;;;4387920;32;20147;-84
2021/04/25 00:03:53;;;;;;;99.87;94.07;;;;;;;;;;4379925;32;20120;-83
2021/04/25 00:06:21;;;;;;;84.60;79.62;;;;;;;;;;4382645;32;20655;-83
2021/04/25 00:08:54;;;;;;;83.05;77.97;;;;;;;;;;4374077;32;20151;-83
2021/04/25 00:11:24;;;;;;;44.70;41.22;;;;;;;;;;4387570;32;20100;-83
2021/04/25 00:13:55;;;;;;;57.88;53.95;;;;;;;;;;4381454;32;20261;-83
2021/04/25 00:16:28;;;;;;;59.45;55.63;;;;;;;;;;4387255;32;20525;-83
2021/04/25 00:19:01;;;;;;;43.13;40.22;;;;;;;;;;4380520;32;20100;-83
2021/04/25 00:21:32;;;;;;;48.67;44.95;;;;;;;;;;4400173;32;20118;-83
2021/04/25 00:24:03;;;;;;;51.85;48.17;;;;;;;;;;4385847;32;20447;-83
2021/04/25 00:26:34;;;;;;;49.05;45.90;;;;;;;;;;4373043;32;20802;-83
2021/04/25 00:29:04;;;;;;;50.35;46.95;;;;;;;;;;4383386;32;20426;-83
2021/04/25 00:31:35;;;;;;;48.40;44.95;;;;;;;;;;4396123;32;20651;-83
2021/04/25 00:34:06;;;;;;;40.63;37.63;;;;;;;;;;4396701;32;20221;-83
2021/04/25 00:36:37;;;;;;;42.90;39.35;;;;;;;;;;4384083;32;20460;-83
2021/04/25 00:39:05;;;;;;;44.17;41.03;;;;;;;;;;4379938;32;20102;-83
2021/04/25 00:41:36;;;;;;;38.35;35.40;;;;;;;;;;4390952;32;20116;-83
2021/04/25 00:44:11;;;;;;;34.88;31.98;;;;;;;;;;4390004;32;20059;-82
2021/04/25 00:46:42;;;;;;;33.28;30.37;;;;;;;;;;4396752;32;20303;-83
2021/04/25 00:49:10;;;;;;;29.25;26.30;;;;;;;;;;4377621;32;20181;-83
2021/04/25 00:51:41;;;;;;;27.42;24.40;;;;;;;;;;4399569;32;20443;-83
2021/04/25 00:54:12;;;;;;;29.25;26.17;;;;;;;;;;4386893;32;20133;-82
2021/04/25 00:56:42;;;;;;;30.52;27.45;;;;;;;;;;4384117;32;20499;-84
2021/04/25 00:59:14;;;;;;;28.62;26.12;;;;;;;;;;4394371;32;20098;-83
2021/04/25 01:01:44;;;;;;;27.52;25.35;;;;;;;;;;4399308;32;20054;-83
2021/04/25 01:04:15;;;;;;;27.70;25.25;;;;;;;;;;4397791;32;20063;-83
2021/04/25 01:06:45;;;;;;;28.75;26.20;;;;;;;;;;4392282;32;20046;-83
2021/04/25 01:09:16;;;;;;;27.15;24.75;;;;;;;;;;4394379;32;20102;-82
2021/04/25 01:11:47;;;;;;;28.15;25.90;;;;;;;;;;4395603;32;20059;-84
2021/04/25 01:14:17;;;;;;;28.85;26.35;;;;;;;;;;4383985;32;20134;-84
2021/04/25 01:16:48;;;;;;;28.87;25.92;;;;;;;;;;4383822;32;20054;-82
2021/04/25 01:19:19;;;;;;;31.70;28.83;;;;;;;;;;4392941;32;20126;-83
2021/04/25 01:21:56;;;;;;;30.58;27.52;;;;;;;;;;4386018;32;20058;-83
2021/04/25 01:24:26;;;;;;;30.37;27.40;;;;;;;;;;4381672;32;21429;-83
2021/04/25 01:27:03;;;;;;;34.95;31.77;;;;;;;;;;4384548;32;20101;-83
2021/04/25 01:29:36;;;;;;;27.55;24.65;;;;;;;;;;4387914;32;20047;-83
2021/04/25 01:32:07;;;;;;;45.90;41.55;;;;;;;;;;4386351;32;20059;-83
2021/04/25 01:34:38;;;;;;;52.55;48.47;;;;;;;;;;4385795;32;20065;-83
2021/04/25 01:37:09;;;;;;;58.60;54.15;;;;;;;;;;4386356;32;20542;-83
2021/04/25 01:39:39;;;;;;;51.78;47.72;;;;;;;;;;4390148;32;20123;-83
2021/04/25 01:42:10;;;;;;;61.83;57.62;;;;;;;;;;4393412;32;20039;-83
2021/04/25 01:44:38;;;;;;;64.50;59.78;;;;;;;;;;4386449;32;20051;-83
2021/04/25 01:47:09;;;;;;;76.37;70.40;;;;;;;;;;4381882;32;20458;-83
2021/04/25 01:49:40;;;;;;;93.35;87.00;;;;;;;;;;4382017;32;20047;-82
2021/04/25 01:52:08;;;;;;;86.85;80.20;;;;;;;;;;4380280;32;20129;-83
2021/04/25 01:54:38;;;;;;;69.57;64.95;;;;;;;;;;4383817;32;20125;-83
2021/04/25 01:57:08;;;;;;;69.85;64.65;;;;;;;;;;4383767;32;20763;-83
2021/04/25 01:59:39;;;;;;;62.13;58.08;;;;;;;;;;4386558;32;20055;-83
2021/04/25 02:02:09;;;;;;;64.82;60.28;;;;;;;;;;4393827;32;20112;-84
2021/04/25 02:04:40;;;;;;;97.57;90.97;;;;;;;;;;4395033;32;20164;-82
2021/04/25 02:07:11;;;;;;;54.33;50.90;;;;;;;;;;4397967;32;20039;-83
2021/04/25 02:09:41;;;;;;;39.17;36.50;;;;;;;;;;4398742;32;20093;-82
2021/04/25 02:12:12;;;;;;;78.55;73.75;;;;;;;;;;4394326;32;20112;-83
2021/04/25 02:14:43;;;;;;;79.62;74.37;;;;;;;;;;4399433;32;20233;-82
2021/04/25 02:17:14;;;;;;;65.60;61.25;;;;;;;;;;4396619;32;20054;-83
2021/04/25 02:19:42;;;;;;;68.18;62.97;;;;;;;;;;4400048;32;20287;-83
2021/04/25 02:22:12;;;;;;;63.83;59.22;;;;;;;;;;4395031;32;20132;-82
2021/04/25 02:24:42;;;;;;;74.32;68.75;;;;;;;;;;4399124;32;20098;-83
2021/04/25 02:27:16;;;;;;;83.32;77.03;;;;;;;;;;4395843;32;20133;-82
2021/04/25 02:29:46;;;;;;;77.35;71.37;;;;;;;;;;4392100;32;20070;-83
2021/04/25 02:32:17;;;;;;;81.07;75.25;;;;;;;;;;4392327;32;20070;-83
2021/04/25 02:34:47;;;;;;;66.45;61.37;;;;;;;;;;4394286;32;20081;-84
2021/04/25 02:37:20;;;;;;;67.22;62.10;;;;;;;;;;4396363;32;20054;-83
2021/04/25 02:39:51;;;;;;;73.30;67.90;;;;;;;;;;4397558;32;20051;-83
2021/04/25 02:42:21;;;;;;;40.47;37.58;;;;;;;;;;4399043;32;20062;-83
2021/04/25 02:44:52;;;;;;;76.47;70.97;;;;;;;;;;4399951;32;20155;-82
2021/04/25 02:47:26;;;;;;;86.60;80.35;;;;;;;;;;4398542;32;20042;-82
2021/04/25 02:50:00;;;;;;;66.07;60.80;;;;;;;;;;4398577;32;20042;-82
2021/04/25 02:52:30;;;;;;;76.75;71.28;;;;;;;;;;4397084;32;20046;-83
2021/04/25 02:55:01;;;;;;;61.08;56.37;;;;;;;;;;4388013;32;20074;-82
2021/04/25 02:57:31;;;;;;;70.07;64.78;;;;;;;;;;4394949;32;20068;-83
2021/04/25 03:00:06;;;;;;;75.18;69.87;;;;;;;;;;4376505;32;20098;-82
2021/04/25 03:02:36;;;;;;;72.72;67.55;;;;;;;;;;4391518;32;20078;-83
2021/04/25 03:05:10;;;;;;;37.70;35.15;;;;;;;;;;4392493;32;20071;-84
2021/04/25 03:07:41;;;;;;;72.77;67.77;;;;;;;;;;4394086;32;20090;-83
2021/04/25 03:10:12;;;;;;;83.87;78.20;;;;;;;;;;4393652;32;20162;-83
2021/04/25 03:12:43;;;;;;;69.30;64.00;;;;;;;;;;4394029;32;20225;-83
2021/04/25 03:15:14;;;;;;;65.80;61.33;;;;;;;;;;4392699;32;20384;-83
2021/04/25 03:17:45;;;;;;;41.03;38.42;;;;;;;;;;4389768;32;20133;-83
2021/04/25 03:20:17;;;;;;;37.55;35.15;;;;;;;;;;4380719;32;20110;-83
2021/04/25 03:22:47;;;;;;;42.50;39.92;;;;;;;;;;4375709;32;20081;-83
2021/04/25 03:25:18;;;;;;;41.40;38.72;;;;;;;;;;4380938;32;20058;-83
2021/04/25 03:27:50;;;;;;;32.20;29.95;;;;;;;;;;4395963;32;20078;-83
2021/04/25 03:30:21;;;;;;;37.47;34.97;;;;;;;;;;4394224;32;20349;-83
2021/04/25 03:32:52;;;;;;;37.25;34.85;;;;;;;;;;4393375;32;20077;-83
2021/04/25 03:35:22;;;;;;;32.85;30.33;;;;;;;;;;4379997;32;20310;-83
2021/04/25 03:37:52;;;;;;;44.95;41.80;;;;;;;;;;4399209;32;20133;-83
2021/04/25 03:40:23;;;;;;;46.45;43.42;;;;;;;;;;4403036;32;20051;-83
2021/04/25 03:42:54;;;;;;;39.63;37.25;;;;;;;;;;4395005;32;20059;-83
2021/04/25 03:45:25;;;;;;;45.00;42.22;;;;;;;;;;4371301;32;20039;-83
2021/04/25 03:47:55;;;;;;;33.67;30.88;;;;;;;;;;4398663;32;20039;-84
2021/04/25 03:50:27;;;;;;;31.87;29.65;;;;;;;;;;4387676;32;20066;-83
2021/04/25 03:52:57;;;;;;;40.17;37.15;;;;;;;;;;4397737;32;20495;-82
2021/04/25 03:55:28;;;;;;;43.13;40.28;;;;;;;;;;4382108;32;20063;-83
2021/04/25 03:57:59;;;;;;;38.40;35.65;;;;;;;;;;4387840;32;20074;-83
2021/04/25 04:00:29;;;;;;;41.85;39.25;;;;;;;;;;4382807;32;20096;-83
2021/04/25 04:02:58;;;;;;;45.38;42.28;;;;;;;;;;4383731;32;20059;-83
2021/04/25 04:05:28;;;;;;;30.95;28.80;;;;;;;;;;4388926;32;20108;-83
2021/04/25 04:07:56;;;;;;;44.35;41.25;;;;;;;;;;4393948;32;20497;-83
2021/04/25 04:10:30;;;;;;;41.03;38.13;;;;;;;;;;4394724;32;20043;-83
2021/04/25 04:13:03;;;;;;;41.85;38.90;;;;;;;;;;4398578;32;20079;-83
2021/04/25 04:15:33;;;;;;;41.95;39.15;;;;;;;;;;4397806;32;20094;-83
2021/04/25 04:18:01;;;;;;;38.75;35.75;;;;;;;;;;4396856;32;20116;-83
2021/04/25 04:20:32;;;;;;;47.92;44.67;;;;;;;;;;4398315;32;20108;-83
2021/04/25 04:23:06;;;;;;;40.42;37.67;;;;;;;;;;4396046;32;20086;-83
2021/04/25 04:25:37;;;;;;;72.32;67.40;;;;;;;;;;4395582;32;20146;-84
2021/04/25 04:28:09;;;;;;;71.57;66.55;;;;;;;;;;4369030;32;20055;-84
2021/04/25 04:30:39;;;;;;;74.28;68.70;;;;;;;;;;4361225;32;20392;-83
2021/04/25 04:33:09;;;;;;;85.03;78.85;;;;;;;;;;4377603;32;20066;-83
2021/04/25 04:35:40;;;;;;;71.97;66.72;;;;;;;;;;4381005;32;20137;-83
2021/04/25 04:38:10;;;;;;;74.37;69.07;;;;;;;;;;4381402;32;20054;-84
2021/04/25 04:40:41;;;;;;;72.75;67.72;;;;;;;;;;4385766;32;20102;-83
2021/04/25 04:43:11;;;;;;;68.60;63.42;;;;;;;;;;4392365;32;20101;-83
2021/04/25 04:45:42;;;;;;;63.15;58.38;;;;;;;;;;4391078;32;20125;-84
2021/04/25 04:48:13;;;;;;;75.00;69.30;;;;;;;;;;4396414;32;20082;-83
2021/04/25 04:50:43;;;;;;;92.32;86.20;;;;;;;;;;4398285;32;20096;-83
2021/04/25 04:53:12;;;;;;;76.97;71.47;;;;;;;;;;4380948;32;20067;-82
2021/04/25 04:55:42;;;;;;;82.10;77.10;;;;;;;;;;4391094;32;20175;-83
2021/04/25 04:58:12;;;;;;;54.25;50.83;;;;;;;;;;4383405;32;20046;-83
2021/04/25 05:00:45;;;;;;;36.67;34.03;;;;;;;;;;4378339;32;20109;-83
2021/04/25 05:03:15;;;;;;;42.25;39.45;;;;;;;;;;4408542;32;20109;-83
2021/04/25 05:05:46;;;;;;;46.53;43.53;;;;;;;;;;4389817;32;20121;-82
2021/04/25 05:08:17;;;;;;;40.75;37.70;;;;;;;;;;4375641;32;20150;-83
2021/04/25 05:10:48;;;;;;;53.70;49.92;;;;;;;;;;4382011;32;20117;-83
2021/04/25 05:13:18;;;;;;;54.63;51.00;;;;;;;;;;4385233;32;20136;-83
2021/04/25 05:15:48;;;;;;;41.45;38.22;;;;;;;;;;4389494;32;20129;-82
2021/04/25 05:18:19;;;;;;;44.80;41.65;;;;;;;;;;4386860;32;20177;-83
2021/04/25 05:20:50;;;;;;;38.13;35.33;;;;;;;;;;4362417;32;20107;-82
2021/04/25 05:23:21;;;;;;;46.00;42.70;;;;;;;;;;4380818;32;20439;-83
2021/04/25 05:25:51;;;;;;;45.03;41.25;;;;;;;;;;4380795;32;20885;-84
2021/04/25 05:28:21;;;;;;;47.72;44.70;;;;;;;;;;4375708;32;20102;-82
2021/04/25 05:30:49;;;;;;;39.97;36.72;;;;;;;;;;4377112;32;20677;-83
2021/04/25 05:33:20;;;;;;;41.17;38.17;;;;;;;;;;4377813;32;20109;-83
2021/04/25 05:35:51;;;;;;;61.85;56.83;;;;;;;;;;4370408;32;20283;-83
2021/04/25 05:38:22;;;;;;;63.10;58.92;;;;;;;;;;4368746;32;20156;-82
2021/04/25 05:40:50;;;;;;;50.92;47.28;;;;;;;;;;4373923;32;20092;-82
2021/04/25 05:43:23;;;;;;;64.55;60.33;;;;;;;;;;4378609;32;20101;-83
2021/04/25 05:45:54;;;;;;;58.87;55.03;;;;;;;;;;4371077;32;20094;-83
2021/04/25 05:48:27;;;;;;;38.13;35.25;;;;;;;;;;4376998;32;20129;-84
2021/04/25 05:51:00;;;;;;;56.50;52.38;;;;;;;;;;4360146;32;20117;-83
2021/04/25 05:53:28;;;;;;;45.72;42.47;;;;;;;;;;4377427;32;20488;-82
2021/04/25 05:55:59;;;;;;;62.60;58.72;;;;;;;;;;4374698;32;20097;-82
2021/04/25 05:58:30;;;;;;;51.03;47.50;;;;;;;;;;4371957;32;20459;-82
2021/04/25 06:01:01;;;;;;;48.50;45.33;;;;;;;;;;4374801;32;20073;-82
2021/04/25 06:03:31;;;;;;;51.22;47.78;;;;;;;;;;4370250;32;20472;-83
2021/04/25 06:06:02;;;;;;;40.45;37.67;;;;;;;;;;4366705;32;20136;-83
2021/04/25 06:08:33;;;;;;;42.65;39.65;;;;;;;;;;4372725;32;20145;-83
2021/04/25 06:11:03;;;;;;;37.25;34.65;;;;;;;;;;4377870;32;20081;-83
2021/04/25 06:13:33;;;;;;;34.35;31.70;;;;;;;;;;4361309;32;20081;-82
2021/04/25 06:16:04;;;;;;;38.83;35.63;;;;;;;;;;4367345;32;20190;-83
2021/04/25 06:18:35;;;;;;;44.13;41.10;;;;;;;;;;4373934;32;20048;-82
2021/04/25 06:21:05;;;;;;;34.13;31.75;;;;;;;;;;4368688;32;20055;-82
2021/04/25 06:23:39;;;;;;;41.05;38.55;;;;;;;;;;4373557;32;20790;-83
2021/04/25 06:26:09;;;;;;;35.58;32.63;;;;;;;;;;4373821;32;20527;-83
2021/04/25 06:28:39;;;;;;;32.90;30.77;;;;;;;;;;4374551;32;20091;-83
2021/04/25 06:31:10;;;;;;;34.38;31.95;;;;;;;;;;4380794;32;20143;-83
2021/04/25 06:33:47;;;;;;;39.90;36.83;;;;;;;;;;4370268;32;22786;-83
2021/04/25 06:36:19;;;;;;;44.92;41.63;;;;;;;;;;4377050;32;20113;-83
2021/04/25 06:38:50;;;;;;;41.33;38.28;;;;;;;;;;4384165;32;20869;-83
2021/04/25 06:41:20;;;;;;;47.25;44.17;;;;;;;;;;4376471;32;20436;-82
2021/04/25 06:43:51;;;;;;;46.63;43.63;;;;;;;;;;4375844;32;20840;-84
2021/04/25 06:46:22;;;;;;;69.45;65.25;;;;;;;;;;4383060;32;20164;-83
2021/04/25 06:48:54;;;;;;;61.85;57.95;;;;;;;;;;4392528;32;20133;-83
2021/04/25 06:51:22;;;;;;;93.90;88.10;;;;;;;;;;4386615;32;20116;-83
2021/04/25 06:53:52;;;;;;;75.00;70.55;;;;;;;;;;4383525;32;20770;-83
2021/04/25 06:56:24;;;;;;;60.30;56.28;;;;;;;;;;4387475;32;20089;-83
2021/04/25 06:58:55;;;;;;;80.60;75.28;;;;;;;;;;4402382;32;20104;-83
2021/04/25 07:01:25;;;;;;;80.28;74.45;;;;;;;;;;4380660;32;20066;-83
2021/04/25 07:04:00;;;;;;;64.47;59.28;;;;;;;;;;4383668;32;20144;-84
2021/04/25 07:06:32;;;;;;;17.55;14.85;;;;;;;;;;4397348;32;20088;-84
2021/04/25 07:09:03;;;;;;;23.55;21.60;;;;;;;;;;4390497;32;20101;-84
2021/04/25 07:11:31;;;;;;;22.52;20.55;;;;;;;;;;4381476;32;20546;-84
2021/04/25 07:14:00;;;;;;;44.60;41.92;;;;;;;;;;4381891;32;20193;-84
2021/04/25 07:16:31;;;;;;;31.17;29.40;;;;;;;;;;4396246;32;20396;-83
2021/04/25 07:19:02;;;;;;;16.42;14.45;;;;;;;;;;4401567;32;20346;-84
2021/04/25 07:21:32;;;;;;;14.75;13.23;;;;;;;;;;4377223;32;20106;-85
2021/04/25 07:24:02;;;;;;;33.38;30.67;;;;;;;;;;4382635;32;20050;-84
2021/04/25 07:26:38;;;;;;;34.88;32.53;;;;;;;;;;4383251;32;20130;-85
2021/04/25 07:29:09;;;;;;;76.25;71.72;;;;;;;;;;4390792;32;20441;-84
2021/04/25 07:31:39;;;;;;;26.10;23.92;;;;;;;;;;4382700;32;20189;-85
2021/04/25 07:34:09;;;;;;;13.98;12.75;;;;;;;;;;4370013;32;20126;-85
2021/04/25 07:36:37;;;;;;;14.70;13.30;;;;;;;;;;4381189;32;20455;-86
2021/04/25 07:39:06;;;;;;;13.62;12.23;;;;;;;;;;4362619;32;20489;-85
2021/04/25 07:41:39;;;;;;;15.30;13.90;;;;;;;;;;4365339;32;20598;-85
2021/04/25 07:44:09;;;;;;;13.27;11.95;;;;;;;;;;4367949;32;20064;-85
2021/04/25 07:46:40;;;;;;;28.65;26.85;;;;;;;;;;4368812;32;20124;-84
2021/04/25 07:49:13;;;;;;;14.07;12.80;;;;;;;;;;4368935;32;20161;-85
2021/04/25 07:51:44;;;;;;;44.25;41.67;;;;;;;;;;4373210;32;20063;-84
2021/04/25 07:54:14;;;;;;;29.23;27.17;;;;;;;;;;4381416;32;20056;-84
2021/04/25 07:56:45;;;;;;;15.13;13.82;;;;;;;;;;4374253;32;20085;-84
2021/04/25 07:59:13;;;;;;;18.40;16.85;;;;;;;;;;4373105;32;20603;-84
2021/04/25 08:01:43;;;;;;;43.47;40.45;;;;;;;;;;4363263;32;20196;-83
2021/04/25 08:04:15;;;;;;;110.45;103.50;;;;;;;;;;4365950;32;20050;-83
2021/04/25 08:06:45;;;;;;;74.57;69.82;;;;;;;;;;4368196;32;20123;-84
2021/04/25 08:09:15;;;;;;;36.83;34.17;;;;;;;;;;4367126;32;20047;-84
2021/04/25 08:11:46;;;;;;;33.72;31.35;;;;;;;;;;4378482;32;20073;-84
2021/04/25 08:14:16;;;;;;;19.10;17.33;;;;;;;;;;4385108;32;20050;-85
2021/04/25 08:16:47;;;;;;;145.12;136.82;;;;;;;;;;4371321;32;20121;-85
2021/04/25 08:19:18;;;;;;;34.88;32.40;;;;;;;;;;4372383;32;20051;-85
2021/04/25 08:21:48;;;;;;;17.90;16.52;;;;;;;;;;4380074;32;20055;-85
2021/04/25 08:24:19;;;;;;;66.95;62.97;;;;;;;;;;4383553;32;20587;-85
2021/04/25 08:26:50;;;;;;;37.92;35.75;;;;;;;;;;4378649;32;20141;-83
2021/04/25 08:29:30;;;;;;;16.95;15.40;;;;;;;;;;4374388;32;20133;-83
2021/04/25 08:32:01;;;;;;;13.38;12.27;;;;;;;;;;4383714;32;20118;-83
2021/04/25 08:34:32;;;;;;;21.47;19.90;;;;;;;;;;4386545;32;20043;-83
2021/04/25 08:37:03;;;;;;;21.40;20.00;;;;;;;;;;4378410;32;20081;-83
2021/04/25 08:39:33;;;;;;;24.58;23.08;;;;;;;;;;4383534;32;20441;-83
2021/04/25 08:42:01;;;;;;;17.48;16.17;;;;;;;;;;4380613;32;20129;-83
2021/04/25 08:44:33;;;;;;;22.27;20.85;;;;;;;;;;4386369;32;20089;-83
2021/04/25 08:47:04;;;;;;;18.47;17.17;;;;;;;;;;4371895;32;20081;-83
2021/04/25 08:49:35;;;;;;;28.17;26.48;;;;;;;;;;4384719;32;20110;-83
2021/04/25 08:52:06;;;;;;;21.08;19.75;;;;;;;;;;4392473;32;20047;-83
2021/04/25 08:54:37;;;;;;;19.48;18.27;;;;;;;;;;4380862;32;20409;-84
2021/04/25 08:57:32;;;;;;;18.12;16.60;;;;;;;;;;4459643;31;20109;-85
2021/04/25 09:00:04;;;;;;;17.10;16.05;;;;;;;;;;4448569;32;20477;-85
2021/04/25 09:02:32;;;;;;;21.05;19.52;;;;;;;;;;4455715;32;21778;-84
2021/04/25 09:05:04;;;;;;;23.17;21.42;;;;;;;;;;4450056;32;20097;-85
2021/04/25 09:07:35;;;;;;;18.17;16.67;;;;;;;;;;4455515;32;20165;-86
2021/04/25 09:10:08;;;;;;;39.75;37.30;;;;;;;;;;4452516;32;20745;-84
2021/04/25 09:12:39;;;;;;;20.90;19.60;;;;;;;;;;4456530;32;20778;-84
2021/04/25 09:15:13;;;;;;;18.30;16.87;;;;;;;;;;4452055;32;20530;-84
2021/04/25 09:17:50;;;;;;;18.73;17.45;;;;;;;;;;4453150;32;20072;-84
2021/04/25 09:20:31;;;;;;;26.58;24.67;;;;;;;;;;4449543;32;20050;-85
2021/04/25 09:23:01;;;;;;;20.40;18.98;;;;;;;;;;4444683;32;20093;-86
2021/04/25 09:25:33;;;;;;;35.57;33.53;;;;;;;;;;4455081;32;20124;-85
2021/04/25 09:28:12;;;;;;;18.10;16.65;;;;;;;;;;4450037;32;20073;-84
2021/04/25 09:31:02;;;;;;;44.25;41.33;;;;;;;;;;4456750;32;20152;-85
2021/04/25 09:33:49;;;;;;;21.12;19.80;;;;;;;;;;4458575;32;20054;-84
2021/04/25 09:36:21;;;;;;;21.17;19.58;;;;;;;;;;4449626;32;20116;-85
2021/04/25 09:38:52;;;;;;;20.27;18.95;;;;;;;;;;4452023;32;20038;-85
2021/04/25 09:41:27;;;;;;;21.27;19.85;;;;;;;;;;4450961;32;20384;-84
2021/04/25 09:43:58;;;;;;;17.77;16.58;;;;;;;;;;4452276;32;20133;-85
2021/04/25 09:46:51;;;;;;;15.07;13.88;;;;;;;;;;4459005;32;20053;-85
2021/04/25 09:49:40;;;;;;;14.80;13.60;;;;;;;;;;4446642;32;20050;-85
2021/04/25 09:52:15;;;;;;;14.90;13.90;;;;;;;;;;4455513;32;20079;-86
2021/04/25 09:54:46;;;;;;;16.67;15.60;;;;;;;;;;4453934;32;20102;-85
2021/04/25 09:57:37;;;;;;;18.65;17.45;;;;;;;;;;4449996;32;20057;-84
2021/04/25 10:00:06;;;;;;;14.77;13.95;;;;;;;;;;4457078;32;20113;-85
2021/04/25 10:02:55;;;;;;;13.45;12.45;;;;;;;;;;4451972;32;20065;-85
2021/04/25 10:05:29;;;;;;;15.20;14.20;;;;;;;;;;4452833;32;20119;-85
2021/04/25 10:08:00;;;;;;;16.15;15.05;;;;;;;;;;4448072;32;20105;-85
2021/04/25 10:10:49;;;;;;;14.85;13.85;;;;;;;;;;4446412;32;20075;-85
2021/04/25 10:13:24;;;;;;;25.25;23.55;;;;;;;;;;4439347;32;20062;-85
2021/04/25 10:15:54;;;;;;;27.33;25.67;;;;;;;;;;4442197;32;20144;-85
2021/04/25 10:18:25;;;;;;;31.98;30.02;;;;;;;;;;4434933;32;20089;-85
2021/04/25 10:20:57;;;;;;;44.22;41.60;;;;;;;;;;4434600;32;20237;-84
2021/04/25 10:23:27;;;;;;;35.85;33.35;;;;;;;;;;4437487;32;20084;-85
2021/04/25 10:25:58;;;;;;;15.88;14.98;;;;;;;;;;4433734;32;20034;-84
2021/04/25 10:28:28;;;;;;;24.73;22.85;;;;;;;;;;4433686;32;20066;-84
2021/04/25 10:31:01;;;;;;;29.85;28.00;;;;;;;;;;4437585;32;20219;-84
2021/04/25 10:33:51;;;;;;;73.62;69.15;;;;;;;;;;4443119;32;20046;-84
2021/04/25 10:36:19;;;;;;;37.92;35.65;;;;;;;;;;4433735;32;20456;-84
2021/04/25 10:38:50;;;;;;;28.08;26.12;;;;;;;;;;4435854;32;20511;-84
2021/04/25 10:41:25;;;;;;;24.95;23.52;;;;;;;;;;4433096;32;20153;-83
2021/04/25 10:44:03;;;;;;;57.00;53.40;;;;;;;;;;4438320;32;20045;-83
2021/04/25 10:46:54;;;;;;;64.07;60.58;;;;;;;;;;4435153;32;20124;-84
2021/04/25 10:49:29;;;;;;;47.90;44.95;;;;;;;;;;4425391;32;20141;-84
2021/04/25 10:52:19;;;;;;;49.80;46.72;;;;;;;;;;4440307;32;20114;-84
2021/04/25 10:55:08;;;;;;;71.75;66.68;;;;;;;;;;4438346;32;20120;-84
2021/04/25 10:57:55;;;;;;;71.53;67.05;;;;;;;;;;4433805;32;20078;-84
2021/04/25 11:00:32;;;;;;;37.00;34.80;;;;;;;;;;4435527;32;20077;-83
2021/04/25 11:03:04;;;;;;;22.80;21.40;;;;;;;;;;4442137;32;20408;-83
2021/04/25 11:05:38;;;;;;;16.90;15.68;;;;;;;;;;4435171;32;20364;-83
2021/04/25 11:08:18;;;;;;;21.20;19.90;;;;;;;;;;4432999;32;20127;-83
2021/04/25 11:10:57;;;;;;;22.27;20.88;;;;;;;;;;4439282;32;20061;-83
2021/04/25 11:13:34;;;;;;;27.00;25.40;;;;;;;;;;4436908;32;20515;-83
2021/04/25 11:16:05;;;;;;;61.63;58.30;;;;;;;;;;4436301;32;20072;-84
2021/04/25 11:18:43;;;;;;;23.58;21.95;;;;;;;;;;4431557;32;20170;-83
2021/04/25 11:24:05;;;;;;;19.27;18.12;;;;;;;;;;4441346;32;20041;-84
2021/04/25 11:26:40;;;;;;;27.75;25.80;;;;;;;;;;4434457;32;20147;-85
2021/04/25 11:29:11;;;;;;;21.33;20.12;;;;;;;;;;4432773;32;20092;-84
2021/04/25 11:31:54;;;;;;;24.75;23.25;;;;;;;;;;4438702;32;20134;-85
2021/04/25 11:34:29;;;;;;;27.10;25.30;;;;;;;;;;4439506;32;20085;-85
2021/04/25 11:37:01;;;;;;;26.83;25.23;;;;;;;;;;4439127;32;20413;-84
2021/04/25 11:39:33;;;;;;;24.08;22.35;;;;;;;;;;4432109;32;20133;-84
2021/04/25 11:42:04;;;;;;;28.60;26.93;;;;;;;;;;4439564;32;20502;-85
2021/04/25 11:44:42;;;;;;;27.60;25.88;;;;;;;;;;4437453;32;21098;-85
2021/04/25 11:47:14;;;;;;;45.90;43.00;;;;;;;;;;4436572;32;20416;-84
2021/04/25 11:49:46;;;;;;;33.17;31.20;;;;;;;;;;4439533;32;20084;-84
2021/04/25 11:52:19;;;;;;;28.42;26.75;;;;;;;;;;4444852;32;20101;-85
2021/04/25 11:54:49;;;;;;;;;;;;;;;;;;4437047;32;20063;-84
2021/04/25 11:57:22;;;;;;;57.03;53.75;;;;;;;;;;4429123;32;20635;-85
2021/04/25 12:00:05;;;;;;;41.60;39.28;;;;;;;;;;4439310;32;20456;-85
2021/04/25 12:02:35;;;;;;;193.37;180.25;;;;;;;;;;4438632;32;20084;-85
2021/04/25 12:05:06;;;;;;;132.20;123.87;;;;;;;;;;4436361;32;20440;-84
2021/04/25 12:07:42;;;;;;;152.85;142.98;;;;;;;;;;4444720;32;20142;-84
2021/04/25 12:10:15;;;;;;;69.55;65.78;;;;;;;;;;4447050;32;20062;-84
2021/04/25 12:12:59;;;;;;;184.43;171.52;;;;;;;;;;4445416;32;20085;-85
2021/04/25 12:15:30;;;;;;;122.22;114.90;;;;;;;;;;4438410;32;20071;-85
2021/04/25 12:18:00;;;;;;;64.55;60.83;;;;;;;;;;4441402;32;20065;-84
2021/04/25 12:20:31;;;;;;;212.57;197.05;;;;;;;;;;4442379;32;20413;-85
2021/04/25 12:23:02;;;;;;;93.25;88.03;;;;;;;;;;4443689;32;20550;-85
2021/04/25 12:25:32;;;;;;;163.50;153.50;;;;;;;;;;4439061;32;20080;-84
2021/04/25 12:28:03;;;;;;;322.05;296.50;;;;;;;;;;4441735;32;20068;-85
2021/04/25 12:30:34;;;;;;;102.65;95.97;;;;;;;;;;4430708;32;20072;-85
2021/04/25 12:33:07;;;;;;;67.55;63.05;;;;;;;;;;4434813;32;20085;-85
2021/04/25 12:35:40;;;;;;;247.35;230.50;;;;;;;;;;4443487;32;20061;-84
2021/04/25 12:38:18;;;;;;;435.13;395.42;;;;;;;;;;4439007;32;20494;-85
2021/04/25 12:40:58;;;;;;;55.80;52.53;;;;;;;;;;4442113;32;20073;-85
2021/04/25 12:43:35;;;;;;;181.23;168.62;;;;;;;;;;4436687;32;20062;-84
2021/04/25 12:46:13;;;;;;;64.18;59.67;;;;;;;;;;4438493;32;20041;-84
2021/04/25 12:48:47;;;;;;;84.90;77.30;;;;;;;;;;4438098;32;20076;-85
2021/04/25 12:51:24;;;;;;;48.47;44.97;;;;;;;;;;4445931;32;20054;-84
2021/04/25 12:54:04;;;;;;;115.60;106.50;;;;;;;;;;4434940;32;20054;-84
2021/04/25 12:56:53;;;;;;;56.90;52.97;;;;;;;;;;4442611;32;20508;-84
2021/04/25 12:59:30;;;;;;;64.37;59.90;;;;;;;;;;4441646;32;20120;-84
2021/04/25 13:02:00;;;;;;;67.00;62.03;;;;;;;;;;4439364;32;20076;-84
2021/04/25 13:04:33;;;;;;;43.80;40.70;;;;;;;;;;4433734;32;20416;-85
2021/04/25 13:07:16;;;;;;;67.18;62.22;;;;;;;;;;4428812;32;20148;-84
2021/04/25 13:10:07;;;;;;;39.08;36.40;;;;;;;;;;4432886;32;20061;-84
2021/04/25 13:12:39;;;;;;;53.38;49.67;;;;;;;;;;4437888;32;20141;-84
2021/04/25 13:15:22;;;;;;;51.78;47.47;;;;;;;;;;4439554;32;20076;-84
2021/04/25 13:17:54;;;;;;;60.58;56.00;;;;;;;;;;4442477;32;20073;-84
2021/04/25 13:20:46;;;;;;;42.17;39.15;;;;;;;;;;4440826;32;20071;-84
2021/04/25 13:23:24;;;;;;;43.38;39.85;;;;;;;;;;4424561;32;20174;-84
2021/04/25 13:25:54;;;;;;;50.85;47.08;;;;;;;;;;4443621;32;20152;-84
2021/04/25 13:28:29;;;;;;;150.15;138.60;;;;;;;;;;4432008;32;20053;-84
2021/04/25 13:31:05;;;;;;;55.58;51.65;;;;;;;;;;4443192;32;20107;-84
2021/04/25 13:33:37;;;;;;;34.33;31.02;;;;;;;;;;4441457;32;20069;-85
2021/04/25 13:36:08;;;;;;;66.20;61.92;;;;;;;;;;4440778;32;20448;-84
2021/04/25 13:38:39;;;;;;;412.55;367.35;;;;;;;;;;4439985;32;20109;-83
2021/04/25 13:41:11;;;;;;;53.97;50.38;;;;;;;;;;4444766;32;20122;-84
2021/04/25 13:43:41;;;;;;;128.48;117.43;;;;;;;;;;4434977;32;20089;-84
2021/04/25 13:46:12;;;;;;;48.78;45.83;;;;;;;;;;4437135;32;20110;-84
2021/04/25 13:48:42;;;;;;;131.75;122.72;;;;;;;;;;4441541;32;20235;-84
2021/04/25 13:51:13;;;;;;;81.95;76.47;;;;;;;;;;4437002;32;20116;-84
2021/04/25 13:53:44;;;;;;;38.45;36.05;;;;;;;;;;4442790;32;20166;-84
2021/04/25 13:56:12;;;;;;;381.33;11.93;;;;;;;;;;4437725;32;20121;-84
2021/04/25 13:58:42;;;;;;;1114.88;550.03;;;;;;;;;;4439396;32;20163;-84
2021/04/25 14:01:14;;;;;;;6.87;1.33;;;;;;;;;;4445925;32;20585;-84
2021/04/25 14:03:45;;;;;;;6.62;1.12;;;;;;;;;;4439099;32;20097;-84
2021/04/25 14:06:15;;;;;;;5.57;1.40;;;;;;;;;;4442099;32;20110;-84
2021/04/25 14:09:00;;;;;;;4.35;1.20;;;;;;;;;;4442546;32;20121;-84
2021/04/25 14:11:30;;;;;;;7.75;2.10;;;;;;;;;;4438547;32;20065;-84
2021/04/25 14:14:01;;;;;;;7.12;1.35;;;;;;;;;;4443118;32;20128;-84
2021/04/25 14:16:36;;;;;;;6.00;1.00;;;;;;;;;;4440292;32;20089;-84
2021/04/25 14:19:07;;;;;;;5.00;1.00;;;;;;;;;;4442376;32;20430;-84
2021/04/25 14:21:35;;;;;;;6.97;1.20;;;;;;;;;;4442094;32;20101;-84
2021/04/25 14:24:06;;;;;;;5.72;1.50;;;;;;;;;;4441160;32;20484;-85
2021/04/25 14:26:36;;;;;;;4.45;1.00;;;;;;;;;;4435467;32;20136;-85
2021/04/25 14:29:06;;;;;;;4.00;0.77;;;;;;;;;;4436465;32;20136;-85
2021/04/25 14:31:38;;;;;;;4.40;0.90;;;;;;;;;;4442407;32;20105;-83
2021/04/25 14:34:08;;;;;;;5.50;1.40;;;;;;;;;;4441268;32;20101;-83
2021/04/25 14:36:43;;;;;;;6.87;1.30;;;;;;;;;;4440958;32;20050;-84
2021/04/25 14:39:14;;;;;;;5.82;1.20;;;;;;;;;;4442384;32;20046;-84
2021/04/25 14:41:44;;;;;;;9.15;1.10;;;;;;;;;;4444279;32;20104;-84
2021/04/25 14:44:15;;;;;;;3.30;1.12;;;;;;;;;;4442717;32;20233;-83
2021/04/25 14:46:46;;;;;;;4.75;1.10;;;;;;;;;;4436469;32;20117;-84
2021/04/25 14:49:16;;;;;;;3.42;0.98;;;;;;;;;;4441115;32;20079;-84
2021/04/25 14:51:46;;;;;;;6.43;1.20;;;;;;;;;;4432411;32;20552;-83